createdAt,value
2022-10-05T00:00:19.633Z,9.29
2022-10-05T00:02:47.929Z,9.27
2022-10-05T00:05:29.418Z,9.24
2022-10-05T00:08:02.172Z,9.23
2022-10-05T00:10:29.408Z,9.23
2022-10-05T00:12:56.307Z,9.21
2022-10-05T00:15:23.591Z,9.24
2022-10-05T00:17:50.230Z,9.23
2022-10-05T00:20:23.337Z,9.26
2022-10-05T00:22:56.473Z,9.28
2022-10-05T00:25:24.033Z,9.27
2022-10-05T00:27:58.639Z,9.23
2022-10-05T00:30:31.075Z,9.21
2022-10-05T00:32:59.865Z,9.22
2022-10-05T00:35:29.362Z,9.20
2022-10-05T00:37:56.497Z,9.21
2022-10-05T00:40:37.392Z,9.17
2022-10-05T00:43:16.043Z,9.16
2022-10-05T00:45:52.402Z,9.12
2022-10-05T00:48:26.740Z,9.09
2022-10-05T00:51:24.016Z,9.06
2022-10-05T00:54:18.357Z,9.05
2022-10-05T00:57:06.424Z,9.02
2022-10-05T00:59:44.754Z,9.03
2022-10-05T01:03:12.870Z,9.01
2022-10-05T01:05:47.637Z,9.01
2022-10-05T01:08:32.928Z,9.02
2022-10-05T01:10:59.512Z,9.02
2022-10-05T01:13:31.844Z,9.02
2022-10-05T01:16:04.723Z,9.05
2022-10-05T01:18:53.641Z,9.05
2022-10-05T01:21:20.192Z,9.02
2022-10-05T01:24:14.394Z,9.00
2022-10-05T01:27:09.661Z,8.96
2022-10-05T01:30:11.202Z,8.95
2022-10-05T01:32:44.429Z,8.95
2022-10-05T01:35:35.790Z,8.98
2022-10-05T01:38:13.965Z,8.95
2022-10-05T01:41:20.662Z,8.92
2022-10-05T01:43:52.995Z,8.89
2022-10-05T01:46:22.478Z,8.87
2022-10-05T01:49:33.066Z,8.84
2022-10-05T01:52:51.782Z,8.81
2022-10-05T01:55:40.557Z,8.86
2022-10-05T01:58:15.764Z,8.85
2022-10-05T02:00:55.918Z,8.86
2022-10-05T02:03:33.465Z,8.85
2022-10-05T02:06:06.409Z,8.85
2022-10-05T02:08:50.022Z,8.81
2022-10-05T02:11:16.674Z,8.81
2022-10-05T02:13:50.039Z,8.77
2022-10-05T02:16:24.542Z,8.74
2022-10-05T02:19:09.328Z,8.73
2022-10-05T02:21:36.776Z,8.72
2022-10-05T02:24:09.948Z,8.70
2022-10-05T02:26:39.367Z,8.68
2022-10-05T02:29:12.701Z,8.68
2022-10-05T02:32:22.055Z,8.65
2022-10-05T02:34:48.749Z,8.62
2022-10-05T02:37:34.490Z,8.57
2022-10-05T02:40:42.583Z,8.53
2022-10-05T02:43:44.492Z,8.49
2022-10-05T02:46:35.493Z,8.47
2022-10-05T02:49:16.983Z,8.43
2022-10-05T02:52:06.597Z,8.38
2022-10-05T02:54:59.138Z,8.37
2022-10-05T02:57:37.424Z,8.37
2022-10-05T03:00:21.305Z,8.35
2022-10-05T03:02:52.013Z,8.31
2022-10-05T03:05:28.207Z,8.28
2022-10-05T03:08:06.597Z,8.27
2022-10-05T03:10:46.133Z,8.30
2022-10-05T03:13:21.971Z,8.31
2022-10-05T03:16:15.524Z,8.31
2022-10-05T03:18:59.114Z,8.31
2022-10-05T03:21:35.840Z,8.30
2022-10-05T03:24:11.312Z,8.29
2022-10-05T03:27:02.415Z,8.27
2022-10-05T03:30:18.124Z,8.22
2022-10-05T03:33:02.935Z,8.21
2022-10-05T03:35:58.557Z,8.19
2022-10-05T03:38:43.833Z,8.17
2022-10-05T03:41:25.475Z,8.16
2022-10-05T03:44:09.894Z,8.19
2022-10-05T03:46:40.031Z,8.20
2022-10-05T03:49:17.469Z,8.18
2022-10-05T03:51:51.422Z,8.19
2022-10-05T03:54:23.671Z,8.18
2022-10-05T03:57:01.880Z,8.17
2022-10-05T03:59:39.370Z,8.20
2022-10-05T04:02:12.904Z,8.18
2022-10-05T04:04:49.699Z,8.15
2022-10-05T04:07:32.274Z,8.12
2022-10-05T04:10:01.280Z,8.12
2022-10-05T04:12:37.172Z,8.10
2022-10-05T04:15:08.551Z,8.09
2022-10-05T04:17:42.380Z,8.09
2022-10-05T04:20:24.971Z,8.09
2022-10-05T04:23:04.842Z,8.09
2022-10-05T04:25:39.775Z,8.10
2022-10-05T04:28:25.227Z,8.09
2022-10-05T04:30:54.984Z,8.10
2022-10-05T04:33:22.277Z,8.09
2022-10-05T04:35:48.822Z,8.08
2022-10-05T04:39:03.734Z,8.05
2022-10-05T04:42:10.550Z,8.05
2022-10-05T04:45:19.858Z,8.06
2022-10-05T04:48:20.826Z,8.06
2022-10-05T04:51:14.190Z,8.07
2022-10-05T04:53:49.603Z,8.09
2022-10-05T04:56:21.292Z,8.12
2022-10-05T04:59:12.938Z,8.15
2022-10-05T05:02:17.717Z,8.19
2022-10-05T05:05:12.629Z,8.25
2022-10-05T05:07:51.708Z,8.35
2022-10-05T05:10:24.249Z,8.41
2022-10-05T05:13:26.447Z,8.51
2022-10-05T05:16:04.036Z,8.56
2022-10-05T05:19:01.555Z,8.58
2022-10-05T05:21:40.590Z,8.59
2022-10-05T05:24:10.441Z,8.62
2022-10-05T05:26:58.753Z,8.67
2022-10-05T05:30:00.371Z,8.77
2022-10-05T05:32:41.867Z,8.92
2022-10-05T05:35:14.510Z,8.97
2022-10-05T05:37:54.758Z,9.02
2022-10-05T05:40:28.038Z,9.07
2022-10-05T05:43:08.514Z,9.17
2022-10-05T05:45:47.004Z,9.27
2022-10-05T05:48:30.160Z,9.36
2022-10-05T05:51:29.064Z,9.55
2022-10-05T05:54:29.689Z,9.63
2022-10-05T05:57:13.900Z,9.70
2022-10-05T05:59:55.436Z,9.89
2022-10-05T06:02:30.885Z,10.11
2022-10-05T06:05:06.217Z,10.28
2022-10-05T06:07:36.769Z,10.48
2022-10-05T06:10:23.151Z,10.50
2022-10-05T06:12:54.987Z,10.63
2022-10-05T06:15:30.767Z,10.74
2022-10-05T06:18:02.351Z,10.85
2022-10-05T06:20:33.318Z,10.90
2022-10-05T06:23:04.945Z,11.05
2022-10-05T06:25:52.364Z,11.14
2022-10-05T06:28:19.711Z,11.17
2022-10-05T06:31:01.000Z,11.23
2022-10-05T06:33:50.325Z,11.40
2022-10-05T06:36:42.031Z,11.74
2022-10-05T06:39:23.639Z,11.71
2022-10-05T06:42:13.748Z,11.85
2022-10-05T06:44:53.595Z,12.19
2022-10-05T06:47:38.081Z,12.35
2022-10-05T06:50:12.686Z,12.50
2022-10-05T06:53:09.115Z,12.70
2022-10-05T06:55:47.792Z,12.94
2022-10-05T06:58:36.499Z,13.29
2022-10-05T07:01:21.621Z,13.70
2022-10-05T07:04:00.125Z,13.79
2022-10-05T07:06:51.756Z,13.68
2022-10-05T07:09:29.681Z,13.83
2022-10-05T07:12:07.799Z,14.09
2022-10-05T07:15:03.651Z,14.48
2022-10-05T07:17:39.589Z,14.85
2022-10-05T07:20:26.411Z,14.97
2022-10-05T07:23:11.954Z,14.88
2022-10-05T07:26:00.419Z,14.81
2022-10-05T07:28:29.958Z,14.95
2022-10-05T07:31:04.307Z,15.01
2022-10-05T07:33:54.005Z,15.37
2022-10-05T07:36:54.386Z,15.59
2022-10-05T07:39:58.378Z,15.91
2022-10-05T07:42:30.343Z,16.08
2022-10-05T07:45:34.517Z,15.90
2022-10-05T07:48:13.727Z,16.17
2022-10-05T07:51:06.613Z,16.44
2022-10-05T07:53:38.411Z,16.21
2022-10-05T07:56:10.057Z,16.65
2022-10-05T07:58:58.136Z,17.28
2022-10-05T08:01:37.508Z,16.93
2022-10-05T08:04:32.799Z,17.21
2022-10-05T08:07:07.030Z,17.50
2022-10-05T08:09:39.035Z,17.88
2022-10-05T08:12:38.011Z,18.17
2022-10-05T08:15:20.669Z,17.97
2022-10-05T08:18:00.508Z,17.62
2022-10-05T08:20:48.090Z,17.93
2022-10-05T08:23:26.237Z,17.83
2022-10-05T08:26:29.096Z,18.04
2022-10-05T08:29:20.260Z,18.31
2022-10-05T08:31:55.200Z,18.70
2022-10-05T08:34:27.834Z,19.06
2022-10-05T08:37:07.138Z,18.96
2022-10-05T08:39:42.666Z,18.72
2022-10-05T08:42:21.178Z,18.19
2022-10-05T08:45:06.779Z,18.27
2022-10-05T08:48:11.506Z,18.70
2022-10-05T08:50:47.637Z,18.78
2022-10-05T08:53:32.682Z,17.97
2022-10-05T08:56:28.837Z,18.13
2022-10-05T08:59:01.418Z,17.40
2022-10-05T09:01:52.071Z,18.09
2022-10-05T09:04:45.692Z,18.14
2022-10-05T09:08:16.828Z,18.74
2022-10-05T09:11:18.909Z,19.00
2022-10-05T09:14:27.821Z,18.70
2022-10-05T09:17:05.063Z,19.03
2022-10-05T09:20:15.324Z,19.65
2022-10-05T09:23:10.469Z,19.99
2022-10-05T09:26:00.514Z,20.55
2022-10-05T09:29:09.227Z,19.99
2022-10-05T09:50:52.567Z,21.78
2022-10-05T09:53:41.119Z,21.45
2022-10-05T09:56:21.248Z,21.20
2022-10-05T09:59:15.978Z,20.88
2022-10-05T10:02:05.159Z,20.94
2022-10-05T10:05:28.337Z,21.52
2022-10-05T10:08:12.319Z,21.67
2022-10-05T10:11:00.260Z,22.68
2022-10-05T10:13:54.947Z,22.59
2022-10-05T10:16:33.419Z,22.48
2022-10-05T10:19:24.844Z,23.50
2022-10-05T10:22:20.054Z,23.83
2022-10-05T10:25:32.540Z,24.08
2022-10-05T10:28:26.384Z,24.25
2022-10-05T10:31:02.138Z,22.00
2022-10-05T10:33:35.021Z,21.71
2022-10-05T10:36:20.941Z,21.76
2022-10-05T10:39:00.084Z,21.28
2022-10-05T10:42:00.436Z,21.58
2022-10-05T10:44:55.593Z,22.73
2022-10-05T10:47:35.469Z,21.17
2022-10-05T10:50:24.375Z,21.22
2022-10-05T10:53:29.094Z,20.84
2022-10-05T10:56:08.725Z,21.61
2022-10-05T10:58:41.042Z,21.17
2022-10-05T11:01:19.873Z,21.41
2022-10-05T11:04:11.315Z,22.96
2022-10-05T11:07:08.781Z,22.92
2022-10-05T11:10:26.218Z,23.23
2022-10-05T11:13:29.304Z,23.73
2022-10-05T11:16:17.280Z,23.10
2022-10-05T11:19:11.738Z,21.70
2022-10-05T11:22:35.863Z,21.62
2022-10-05T11:25:31.206Z,22.68
2022-10-05T11:28:53.021Z,22.48
2022-10-05T11:47:09.286Z,24.46
2022-10-05T11:49:44.596Z,23.73
2022-10-05T11:55:37.562Z,22.94
2022-10-05T11:58:23.754Z,22.68
2022-10-05T12:01:01.919Z,22.65
2022-10-05T12:07:08.272Z,22.10
2022-10-05T12:10:08.220Z,21.81
2022-10-05T12:13:19.418Z,21.70
2022-10-05T12:16:10.623Z,22.32
2022-10-05T12:18:39.498Z,23.08
2022-10-05T12:21:25.127Z,23.77
2022-10-05T12:24:09.625Z,23.30
2022-10-05T12:32:39.295Z,23.36
2022-10-05T12:35:47.480Z,24.36
2022-10-05T12:38:29.015Z,24.65
2022-10-05T12:41:05.168Z,25.37
2022-10-05T12:43:44.024Z,25.76
2022-10-05T12:46:29.237Z,25.74
2022-10-05T12:49:26.437Z,26.18
2022-10-05T12:52:02.155Z,26.49
2022-10-05T12:54:54.938Z,26.63
2022-10-05T12:57:40.973Z,27.16
2022-10-05T13:00:17.866Z,27.18
2022-10-05T13:02:51.040Z,27.35
2022-10-05T13:05:57.852Z,27.41
2022-10-05T13:08:53.871Z,27.34
2022-10-05T13:11:31.590Z,27.61
2022-10-05T13:14:35.744Z,25.85
2022-10-05T13:17:15.973Z,25.13
2022-10-05T13:19:47.021Z,25.22
2022-10-05T13:22:26.313Z,26.20
2022-10-05T13:25:01.886Z,26.95
2022-10-05T13:27:44.996Z,26.08
2022-10-05T13:30:19.363Z,25.00
2022-10-05T13:32:49.948Z,23.78
2022-10-05T13:35:38.054Z,23.55
2022-10-05T13:38:20.263Z,23.24
2022-10-05T13:41:15.359Z,22.92
2022-10-05T13:43:57.717Z,22.24
2022-10-05T13:46:28.805Z,21.57
2022-10-05T13:49:14.770Z,21.60
2022-10-05T13:51:50.519Z,21.64
2022-10-05T13:54:32.234Z,21.37
2022-10-05T13:57:23.698Z,21.42
2022-10-05T14:00:03.270Z,21.11
2022-10-05T14:02:38.049Z,21.12
2022-10-05T14:05:19.921Z,21.03
2022-10-05T14:07:54.450Z,20.77
2022-10-05T14:10:34.235Z,20.76
2022-10-05T14:13:15.993Z,21.46
2022-10-05T14:16:00.184Z,21.25
2022-10-05T14:18:31.311Z,22.30
2022-10-05T14:21:03.527Z,23.16
2022-10-05T14:23:30.720Z,23.48
2022-10-05T14:25:58.052Z,23.89
2022-10-05T14:28:30.492Z,23.50
2022-10-05T14:30:59.526Z,23.47
2022-10-05T14:33:32.795Z,23.47
2022-10-05T14:36:00.613Z,24.07
2022-10-05T14:38:31.242Z,24.23
2022-10-05T14:41:04.952Z,24.58
2022-10-05T14:43:32.740Z,24.72
2022-10-05T14:46:23.223Z,24.42
2022-10-05T14:49:32.033Z,23.88
2022-10-05T14:51:58.905Z,23.22
2022-10-05T14:54:30.772Z,22.31
2022-10-05T14:57:06.267Z,22.52
2022-10-05T15:00:02.192Z,22.83
2022-10-05T15:02:38.757Z,22.93
2022-10-05T15:05:17.019Z,22.53
2022-10-05T15:07:48.399Z,22.03
2022-10-05T15:10:41.687Z,21.55
2022-10-05T15:13:33.280Z,21.45
2022-10-05T15:16:19.942Z,21.16
2022-10-05T15:18:59.180Z,20.81
2022-10-05T15:21:52.614Z,20.45
2022-10-05T15:24:24.512Z,20.05
2022-10-05T15:26:58.989Z,19.85
2022-10-05T15:29:38.913Z,19.61
2022-10-05T15:32:24.197Z,19.27
2022-10-05T15:35:25.087Z,19.01
2022-10-05T15:38:20.885Z,18.76
2022-10-05T15:40:59.623Z,18.54
2022-10-05T15:43:35.989Z,18.29
2022-10-05T15:46:51.288Z,18.08
2022-10-05T15:49:19.706Z,17.91
2022-10-05T15:52:14.419Z,17.76
2022-10-05T15:55:03.173Z,17.57
2022-10-05T15:57:38.638Z,17.43
2022-10-05T16:00:15.462Z,17.30
2022-10-05T16:03:06.061Z,17.12
2022-10-05T16:06:05.967Z,16.95
2022-10-05T16:08:51.873Z,16.77
2022-10-05T16:11:51.791Z,16.63
2022-10-05T16:14:40.051Z,16.51
2022-10-05T16:17:36.904Z,16.41
2022-10-05T16:20:18.891Z,16.30
2022-10-05T16:23:11.236Z,16.23
2022-10-05T16:25:44.745Z,16.13
2022-10-05T16:28:50.507Z,16.07
2022-10-05T16:31:38.128Z,15.95
2022-10-05T16:34:19.978Z,15.86
2022-10-05T16:37:00.499Z,15.79
2022-10-05T16:39:52.088Z,15.74
2022-10-05T16:42:35.526Z,15.68
2022-10-05T16:45:17.766Z,15.62
2022-10-05T16:48:02.999Z,15.56
2022-10-05T16:50:50.336Z,15.51
2022-10-05T16:53:23.300Z,15.47
2022-10-05T16:56:06.356Z,15.45
2022-10-05T16:59:08.987Z,15.40
2022-10-05T17:01:58.337Z,15.31
2022-10-05T17:04:39.178Z,15.18
2022-10-05T17:07:41.646Z,14.91
2022-10-05T17:10:35.879Z,14.82
2022-10-05T17:13:15.452Z,14.73
2022-10-05T17:15:58.268Z,14.67
2022-10-05T17:18:30.295Z,14.59
2022-10-05T17:21:10.153Z,14.55
2022-10-05T17:23:55.179Z,14.51
2022-10-05T17:26:40.657Z,14.52
2022-10-05T17:29:15.607Z,14.51
2022-10-05T17:32:07.534Z,14.49
2022-10-05T17:34:37.835Z,14.46
2022-10-05T17:37:36.384Z,14.39
2022-10-05T17:40:30.686Z,14.33
2022-10-05T17:43:24.873Z,14.29
2022-10-05T17:45:54.056Z,14.23
2022-10-05T17:48:50.669Z,14.20
2022-10-05T17:51:49.473Z,14.15
2022-10-05T17:55:10.705Z,14.10
2022-10-05T17:57:40.418Z,14.01
2022-10-05T18:00:25.734Z,13.97
2022-10-05T18:02:57.365Z,13.92
2022-10-05T18:05:29.756Z,13.83
2022-10-05T18:08:17.307Z,13.78
2022-10-05T18:11:05.879Z,13.74
2022-10-05T18:13:42.544Z,13.70
2022-10-05T18:16:13.026Z,13.68
2022-10-05T18:18:43.136Z,13.62
2022-10-05T18:21:18.352Z,13.60
2022-10-05T18:24:17.867Z,13.52
2022-10-05T18:26:54.157Z,13.48
2022-10-05T18:30:05.335Z,13.43
2022-10-05T18:32:40.993Z,13.36
2022-10-05T18:35:16.191Z,13.33
2022-10-05T18:38:06.053Z,13.28
2022-10-05T18:40:51.697Z,13.26
2022-10-05T18:43:42.765Z,13.20
2022-10-05T18:46:16.478Z,13.16
2022-10-05T18:48:50.394Z,13.12
2022-10-05T18:51:55.201Z,13.09
2022-10-05T18:54:35.970Z,13.07
2022-10-05T18:57:25.517Z,13.05
2022-10-05T19:00:02.277Z,13.06
2022-10-05T19:02:44.289Z,13.04
2022-10-05T19:05:47.482Z,13.08
2022-10-05T19:08:18.227Z,13.08
2022-10-05T19:11:23.267Z,13.07
2022-10-05T19:14:11.220Z,13.08
2022-10-05T19:16:55.319Z,13.06
2022-10-05T19:19:49.352Z,13.04
2022-10-05T19:22:31.811Z,13.00
2022-10-05T19:25:14.614Z,12.96
2022-10-05T19:28:08.276Z,12.96
2022-10-05T19:31:04.639Z,12.97
2022-10-05T19:33:52.894Z,12.95
2022-10-05T19:36:27.981Z,12.95
2022-10-05T19:39:00.992Z,12.92
2022-10-05T19:41:47.294Z,12.88
2022-10-05T19:44:45.261Z,12.85
2022-10-05T19:47:29.851Z,12.81
2022-10-05T19:49:57.233Z,12.79
2022-10-05T19:52:52.376Z,12.74
2022-10-05T19:55:22.365Z,12.70
2022-10-05T19:57:53.289Z,12.72
2022-10-05T20:00:31.339Z,12.76
2022-10-05T20:03:12.849Z,12.74
2022-10-05T20:05:40.138Z,12.73
2022-10-05T20:08:08.773Z,12.72
2022-10-05T20:10:35.686Z,12.70
2022-10-05T20:13:04.918Z,12.70
2022-10-05T20:15:56.305Z,12.68
2022-10-05T20:19:03.293Z,12.70
2022-10-05T20:21:46.841Z,12.65
2022-10-05T20:24:20.293Z,12.61
2022-10-05T20:27:02.026Z,12.59
2022-10-05T20:29:30.846Z,12.60
2022-10-05T20:31:58.242Z,12.59
2022-10-05T20:34:27.183Z,12.60
2022-10-05T20:36:53.827Z,12.59
2022-10-05T20:39:23.390Z,12.60
2022-10-05T20:41:50.489Z,12.59
2022-10-05T20:44:17.894Z,12.56
2022-10-05T20:46:46.609Z,12.53
2022-10-05T20:49:15.380Z,12.52
2022-10-05T20:51:42.094Z,12.50
2022-10-05T20:54:09.762Z,12.46
2022-10-05T20:56:36.449Z,12.45
2022-10-05T20:59:17.560Z,12.44
2022-10-05T21:01:48.125Z,12.43
2022-10-05T21:04:21.176Z,12.41
2022-10-05T21:06:48.035Z,12.36
2022-10-05T21:09:19.379Z,12.34
2022-10-05T21:11:49.681Z,12.31
2022-10-05T21:14:17.094Z,12.32
2022-10-05T21:16:46.558Z,12.31
2022-10-05T21:19:14.650Z,12.31
2022-10-05T21:21:44.122Z,12.33
2022-10-05T21:24:13.757Z,12.32
2022-10-05T21:26:42.457Z,12.28
2022-10-05T21:29:12.736Z,12.28
2022-10-05T21:31:40.687Z,12.27
2022-10-05T21:34:08.211Z,12.25
2022-10-05T21:36:35.773Z,12.25
2022-10-05T21:39:03.756Z,12.24
2022-10-05T21:41:30.993Z,12.22
2022-10-05T21:43:57.634Z,12.20
2022-10-05T21:46:28.263Z,12.21
2022-10-05T21:48:57.254Z,12.23
2022-10-05T21:51:26.833Z,12.22
2022-10-05T21:53:59.550Z,12.19
2022-10-05T21:56:31.713Z,12.17
2022-10-05T21:58:59.673Z,12.14
2022-10-05T22:01:26.493Z,12.12
2022-10-05T22:03:53.212Z,12.12
2022-10-05T22:06:19.969Z,12.13
2022-10-05T22:08:46.557Z,12.12
2022-10-05T22:11:16.738Z,12.12
2022-10-05T22:13:51.999Z,12.09
2022-10-05T22:16:23.845Z,12.11
2022-10-05T22:18:53.662Z,12.10
2022-10-05T22:21:21.466Z,12.07
2022-10-05T22:23:49.532Z,12.04
2022-10-05T22:26:21.013Z,12.00
2022-10-05T22:28:52.475Z,11.99
2022-10-05T22:31:20.782Z,11.98
2022-10-05T22:33:49.084Z,11.96
2022-10-05T22:36:19.277Z,11.95
2022-10-05T22:38:47.673Z,11.90
2022-10-05T22:41:18.338Z,11.90
2022-10-05T22:43:50.278Z,11.91
2022-10-05T22:46:18.424Z,11.89
2022-10-05T22:48:45.903Z,11.87
2022-10-05T22:51:12.797Z,11.86
2022-10-05T22:53:40.929Z,11.84
2022-10-05T22:56:11.672Z,11.82
2022-10-05T22:58:39.389Z,11.80
2022-10-05T23:01:08.993Z,11.79
2022-10-05T23:03:37.321Z,11.79
2022-10-05T23:06:10.891Z,11.79
2022-10-05T23:08:39.388Z,11.76
2022-10-05T23:11:15.268Z,11.73
2022-10-05T23:13:43.759Z,11.73
2022-10-05T23:16:16.695Z,11.74
2022-10-05T23:18:50.447Z,11.74
2022-10-05T23:21:20.142Z,11.75
2022-10-05T23:23:51.318Z,11.75
2022-10-05T23:26:23.071Z,11.78
2022-10-05T23:28:51.618Z,11.76
2022-10-05T23:31:21.797Z,11.75
2022-10-05T23:33:50.322Z,11.74
2022-10-05T23:36:20.896Z,11.68
2022-10-05T23:38:49.192Z,11.65
2022-10-05T23:41:17.814Z,11.63
2022-10-05T23:43:46.911Z,11.61
2022-10-05T23:46:15.328Z,11.60
2022-10-05T23:48:42.036Z,11.55
2022-10-05T23:51:12.534Z,11.54
2022-10-05T23:53:40.447Z,11.55
2022-10-05T23:56:08.437Z,11.57
2022-10-05T23:58:35.022Z,11.54
